Time;durP1;ratioP1;P1;durP2;ratioP2;P2;SDS_P1;SDS_P2;PMS_P1;PMS_P2;Temp;Humidity;BMP_temperature;BMP_pressure;BME280_temperature;BME280_humidity;BME280_pressure;Samples;Min_cycle;Max_cycle;Signal;HPM_P1;HPM_P2
2022/08/27 00:01:20;;;;;;;16.77;10.77;;;25.40;74.30;;;;;;5118554;28;20536;-66
2022/08/27 00:03:48;;;;;;;19.00;10.83;;;25.40;74.30;;;;;;5118885;28;20215;-66
2022/08/27 00:06:18;;;;;;;16.40;9.63;;;25.30;74.30;;;;;;5113940;28;20200;-66
2022/08/27 00:08:46;;;;;;;13.77;9.50;;;25.30;74.50;;;;;;5113711;28;20200;-66
2022/08/27 00:11:16;;;;;;;13.60;11.10;;;25.20;74.60;;;;;;5118717;28;20192;-66
2022/08/27 00:13:43;;;;;;;12.87;10.10;;;25.30;75.40;;;;;;5115926;27;20196;-66
2022/08/27 00:16:12;;;;;;;17.07;10.00;;;25.20;74.70;;;;;;5120094;27;20197;-66
2022/08/27 00:18:41;;;;;;;16.90;10.27;;;25.30;74.80;;;;;;5119120;27;20232;-66
2022/08/27 00:21:08;;;;;;;16.87;11.30;;;25.30;74.80;;;;;;5122253;27;20204;-66
2022/08/27 00:23:35;;;;;;;13.63;10.50;;;25.20;74.70;;;;;;5122421;27;20193;-66
2022/08/27 00:26:03;;;;;;;13.43;9.93;;;25.20;74.70;;;;;;5121697;27;20213;-66
2022/08/27 00:28:31;;;;;;;14.90;10.47;;;25.20;74.90;;;;;;5117865;27;20640;-66
2022/08/27 00:30:58;;;;;;;20.37;11.30;;;25.20;75.00;;;;;;5092913;27;20219;-66
2022/08/27 00:33:29;;;;;;;12.03;9.60;;;25.20;75.00;;;;;;5109771;27;20495;-66
2022/08/27 00:35:56;;;;;;;14.50;9.87;;;25.20;75.00;;;;;;5117269;27;20255;-66
2022/08/27 00:38:24;;;;;;;15.80;9.33;;;25.10;75.00;;;;;;5104145;27;20202;-66
2022/08/27 00:40:52;;;;;;;14.90;10.80;;;25.10;75.20;;;;;;5122477;27;20280;-66
2022/08/27 00:43:22;;;;;;;11.87;9.90;;;25.10;75.20;;;;;;5121924;27;20204;-66
2022/08/27 00:45:53;;;;;;;16.37;10.80;;;25.10;75.20;;;;;;5122466;27;20550;-66
2022/08/27 00:48:24;;;;;;;12.03;10.20;;;25.10;75.10;;;;;;5123537;27;20294;-66
2022/08/27 00:50:53;;;;;;;11.30;10.00;;;25.10;75.00;;;;;;5096566;27;20215;-66
2022/08/27 00:53:23;;;;;;;15.33;9.83;;;25.10;75.00;;;;;;5116632;27;20220;-66
2022/08/27 00:55:58;;;;;;;15.20;10.27;;;25.10;75.00;;;;;;5120693;27;20235;-66
2022/08/27 00:58:32;;;;;;;13.73;9.27;;;25.10;75.10;;;;;;5115153;27;20203;-66
2022/08/27 01:01:00;;;;;;;14.27;10.37;;;25.10;75.60;;;;;;5116790;27;20226;-66
2022/08/27 01:03:27;;;;;;;10.87;9.07;;;25.00;74.80;;;;;;5125469;27;20196;-66
2022/08/27 01:05:57;;;;;;;13.07;9.23;;;25.10;74.80;;;;;;5120675;27;20221;-66
2022/08/27 01:08:28;;;;;;;9.47;8.47;;;25.10;74.70;;;;;;5106030;27;20546;-66
2022/08/27 01:10:57;;;;;;;9.87;8.63;;;25.00;74.50;;;;;;5106422;28;20206;-66
2022/08/27 01:13:26;;;;;;;9.60;8.60;;;25.00;74.50;;;;;;5121834;27;20216;-66
2022/08/27 01:16:20;;;;;;;11.40;7.87;;;25.00;74.40;;;;;;5114953;27;20241;-66
2022/08/27 01:18:49;;;;;;;9.43;8.50;;;25.00;74.40;;;;;;5119464;27;20238;-66
2022/08/27 01:21:33;;;;;;;8.47;7.67;;;24.90;74.40;;;;;;5124710;27;20251;-66
2022/08/27 01:24:29;;;;;;;8.67;6.90;;;24.90;74.60;;;;;;5113370;27;20202;-66
2022/08/27 01:26:58;;;;;;;10.20;7.33;;;24.90;74.60;;;;;;5118490;27;20206;-66
2022/08/27 01:29:27;;;;;;;10.10;7.27;;;24.90;74.50;;;;;;5119403;27;20205;-66
2022/08/27 01:32:05;;;;;;;8.67;7.87;;;24.80;74.50;;;;;;5118460;27;20205;-66
2022/08/27 01:34:33;;;;;;;10.97;8.50;;;24.80;74.60;;;;;;5121164;27;20676;-66
2022/08/27 01:37:00;;;;;;;11.43;9.10;;;24.80;74.70;;;;;;5120309;27;20200;-66
2022/08/27 01:39:27;;;;;;;11.40;7.83;;;24.70;74.80;;;;;;5110615;27;20237;-66
2022/08/27 01:42:21;;;;;;;11.90;8.17;;;24.70;75.00;;;;;;5089830;27;20517;-66
2022/08/27 01:44:50;;;;;;;8.60;7.73;;;24.70;75.30;;;;;;5118206;27;20542;-66
2022/08/27 01:47:19;;;;;;;9.87;7.67;;;24.70;75.50;;;;;;5124751;27;20235;-66
2022/08/27 01:49:47;;;;;;;10.97;8.17;;;24.70;75.60;;;;;;5120159;27;20223;-66
2022/08/27 01:52:16;;;;;;;10.73;9.60;;;24.70;75.70;;;;;;5118251;27;20316;-66
2022/08/27 01:54:44;;;;;;;10.90;9.90;;;24.60;75.70;;;;;;5119035;27;20216;-66
2022/08/27 01:57:11;;;;;;;13.50;10.03;;;24.60;75.70;;;;;;5080784;27;20206;-66
2022/08/27 01:59:48;;;;;;;15.37;10.20;;;24.60;75.70;;;;;;5115317;27;20200;-66
2022/08/27 02:02:16;;;;;;;12.67;9.90;;;24.60;75.90;;;;;;5115349;27;20204;-66
2022/08/27 02:04:44;;;;;;;11.40;10.30;;;24.60;76.00;;;;;;5100045;27;20212;-66
2022/08/27 02:07:12;;;;;;;13.70;10.50;;;24.50;76.10;;;;;;5111736;27;20219;-66
2022/08/27 02:09:39;;;;;;;10.47;9.43;;;24.50;76.40;;;;;;5117628;27;20210;-66
2022/08/27 02:12:06;;;;;;;11.53;9.63;;;24.60;76.60;;;;;;5120555;27;20201;-65
2022/08/27 02:14:33;;;;;;;11.87;9.80;;;24.50;76.70;;;;;;5120277;27;20232;-66
2022/08/27 02:17:01;;;;;;;14.13;11.07;;;24.50;76.90;;;;;;5121343;27;20769;-66
2022/08/27 02:19:28;;;;;;;15.37;9.47;;;24.50;77.10;;;;;;5123770;27;20236;-66
2022/08/27 02:21:59;;;;;;;12.50;9.70;;;24.50;77.20;;;;;;5114669;27;20239;-66
2022/08/27 02:24:27;;;;;;;10.10;9.03;;;24.50;77.20;;;;;;5115527;27;20200;-66
2022/08/27 02:26:55;;;;;;;13.93;10.17;;;24.50;77.40;;;;;;5102664;27;20196;-66
2022/08/27 02:29:22;;;;;;;9.73;8.23;;;24.50;77.50;;;;;;5119746;27;20188;-66
2022/08/27 02:31:49;;;;;;;11.17;7.93;;;24.40;77.30;;;;;;5101945;27;20204;-66
2022/08/27 02:34:17;;;;;;;9.97;8.33;;;24.40;77.10;;;;;;5117509;27;20191;-66
2022/08/27 02:36:45;;;;;;;14.77;11.33;;;24.40;77.20;;;;;;5115137;27;20197;-66
2022/08/27 02:39:12;;;;;;;13.47;10.80;;;24.40;77.40;;;;;;5115920;27;20206;-66
2022/08/27 02:41:39;;;;;;;12.83;10.57;;;24.30;77.60;;;;;;5115886;27;20564;-66
2022/08/27 02:44:06;;;;;;;11.17;10.03;;;24.30;77.80;;;;;;5129080;27;20198;-66
2022/08/27 02:46:38;;;;;;;13.83;11.13;;;24.30;78.00;;;;;;5111645;27;20200;-66
2022/08/27 02:49:05;;;;;;;15.97;12.73;;;24.30;78.10;;;;;;5115328;27;20283;-66
2022/08/27 02:51:32;;;;;;;16.73;14.93;;;24.30;78.00;;;;;;5116083;27;20835;-66
2022/08/27 02:54:01;;;;;;;16.10;14.50;;;24.30;77.80;;;;;;5119214;27;20241;-66
2022/08/27 02:56:29;;;;;;;18.53;16.43;;;24.30;77.90;;;;;;5118412;27;20300;-66
2022/08/27 02:58:57;;;;;;;19.43;15.57;;;24.20;77.90;;;;;;5119856;27;20200;-66
2022/08/27 03:01:25;;;;;;;18.53;16.33;;;24.20;78.00;;;;;;5110695;27;20216;-66
2022/08/27 03:03:52;;;;;;;17.37;15.57;;;24.30;78.10;;;;;;5112837;27;20307;-66
2022/08/27 03:06:19;;;;;;;17.77;15.97;;;24.30;78.90;;;;;;5115913;27;20196;-66
2022/08/27 03:08:46;;;;;;;18.27;16.37;;;24.30;78.30;;;;;;5115371;27;20207;-66
2022/08/27 03:11:22;;;;;;;17.63;15.43;;;24.30;78.20;;;;;;5113495;27;20565;-65
2022/08/27 03:13:49;;;;;;;20.73;17.57;;;24.30;78.20;;;;;;5111624;27;20225;-66
2022/08/27 03:16:17;;;;;;;25.50;17.73;;;24.30;78.20;;;;;;5119495;27;20315;-66
2022/08/27 03:18:44;;;;;;;25.47;16.83;;;24.20;78.20;;;;;;5123461;27;20228;-66
2022/08/27 03:21:22;;;;;;;19.83;17.33;;;24.20;78.20;;;;;;5117539;27;20214;-66
2022/08/27 03:23:51;;;;;;;21.60;17.40;;;24.20;78.30;;;;;;5120961;27;20200;-66
2022/08/27 03:26:18;;;;;;;16.90;15.13;;;24.10;78.30;;;;;;5120223;27;20196;-66
2022/08/27 03:28:46;;;;;;;18.90;15.27;;;24.10;78.40;;;;;;5115206;27;20214;-66
2022/08/27 03:31:25;;;;;;;20.77;15.30;;;24.10;78.50;;;;;;5115321;28;20200;-66
2022/08/27 03:34:01;;;;;;;21.93;13.87;;;24.10;78.50;;;;;;5119687;28;20339;-66
2022/08/27 03:36:29;;;;;;;20.97;14.40;;;24.10;78.60;;;;;;5116333;28;20282;-66
2022/08/27 03:38:57;;;;;;;19.10;14.23;;;24.00;78.60;;;;;;5113173;28;20601;-66
2022/08/27 03:41:25;;;;;;;18.10;15.57;;;24.00;78.60;;;;;;5114461;28;20192;-66
2022/08/27 03:44:12;;;;;;;19.00;15.63;;;24.00;78.60;;;;;;5119526;28;20197;-66
2022/08/27 03:46:48;;;;;;;20.97;16.17;;;24.00;78.70;;;;;;5105570;28;20214;-66
2022/08/27 03:49:18;;;;;;;22.63;18.47;;;24.00;78.80;;;;;;5121337;27;20250;-66
2022/08/27 03:51:48;;;;;;;19.97;18.07;;;24.00;78.80;;;;;;5121368;27;20269;-66
2022/08/27 03:54:15;;;;;;;19.73;16.73;;;24.00;78.80;;;;;;5094388;27;20207;-65
2022/08/27 03:56:42;;;;;;;19.43;17.33;;;24.00;78.90;;;;;;5099838;27;20219;-65
2022/08/27 03:59:09;;;;;;;21.97;18.23;;;23.90;78.90;;;;;;5108793;27;20214;-66
2022/08/27 04:01:36;;;;;;;21.13;17.30;;;23.90;79.00;;;;;;5123194;27;20192;-66
2022/08/27 04:04:03;;;;;;;20.33;18.13;;;23.90;78.90;;;;;;5119911;27;20251;-66
2022/08/27 04:06:31;;;;;;;18.47;16.47;;;23.90;78.80;;;;;;5119476;27;20739;-66
2022/08/27 04:08:59;;;;;;;20.73;17.90;;;23.90;79.00;;;;;;5102269;27;20285;-66
2022/08/27 04:11:28;;;;;;;18.47;16.57;;;23.90;79.10;;;;;;5102059;27;20287;-66
2022/08/27 04:13:55;;;;;;;21.77;17.90;;;24.00;79.30;;;;;;5118540;27;20213;-66
2022/08/27 04:16:24;;;;;;;19.57;17.00;;;24.00;79.40;;;;;;5092805;28;20578;-66
2022/08/27 04:18:54;;;;;;;22.43;17.47;;;24.00;79.40;;;;;;5115926;27;20675;-66
2022/08/27 04:21:22;;;;;;;18.53;16.67;;;23.90;79.30;;;;;;5114651;27;20200;-66
2022/08/27 04:23:49;;;;;;;22.33;17.17;;;24.00;79.20;;;;;;5102272;27;20197;-66
2022/08/27 04:26:19;;;;;;;19.20;17.30;;;23.90;79.00;;;;;;5121507;27;20220;-66
2022/08/27 04:28:46;;;;;;;19.67;17.23;;;23.90;79.00;;;;;;5120626;27;20196;-66
2022/08/27 04:31:15;;;;;;;20.10;17.53;;;23.90;79.00;;;;;;5126853;27;20203;-66
2022/08/27 04:33:43;;;;;;;21.03;17.87;;;23.90;78.90;;;;;;5116589;27;20204;-66
2022/08/27 04:36:17;;;;;;;20.57;17.57;;;23.90;78.80;;;;;;5117258;27;20239;-66
2022/08/27 04:38:44;;;;;;;21.57;17.87;;;23.90;78.60;;;;;;5116542;27;20192;-66
2022/08/27 04:41:26;;;;;;;21.17;17.97;;;23.90;78.50;;;;;;5118415;27;20200;-66
2022/08/27 04:43:55;;;;;;;20.40;17.83;;;23.80;78.40;;;;;;5118075;27;20282;-66
2022/08/27 04:46:28;;;;;;;23.53;18.23;;;23.80;78.40;;;;;;5123268;27;20207;-66
2022/08/27 04:49:00;;;;;;;19.57;17.53;;;23.80;78.50;;;;;;5120787;27;20209;-66
2022/08/27 04:51:28;;;;;;;19.60;17.17;;;23.80;78.60;;;;;;5120953;27;20191;-66
2022/08/27 04:53:57;;;;;;;20.63;16.43;;;23.80;78.50;;;;;;5118907;27;20292;-66
2022/08/27 04:56:27;;;;;;;20.07;16.23;;;23.80;78.40;;;;;;5124233;27;20244;-66
2022/08/27 04:58:54;;;;;;;19.33;15.97;;;23.90;78.30;;;;;;5103764;27;20192;-66
2022/08/27 05:01:25;;;;;;;18.40;16.50;;;23.90;78.20;;;;;;5111703;27;20192;-66
2022/08/27 05:03:54;;;;;;;19.33;17.43;;;23.90;78.10;;;;;;5117732;27;20287;-66
2022/08/27 05:06:21;;;;;;;21.53;17.63;;;23.90;78.00;;;;;;5121524;27;20197;-66
2022/08/27 05:08:50;;;;;;;19.33;15.77;;;24.00;78.00;;;;;;5121929;27;20199;-65
2022/08/27 05:11:19;;;;;;;23.07;17.33;;;24.00;77.90;;;;;;5121688;27;20213;-66
2022/08/27 05:13:46;;;;;;;17.60;15.77;;;24.00;78.20;;;;;;5122512;27;20208;-66
2022/08/27 05:16:17;;;;;;;19.50;16.40;;;24.00;78.40;;;;;;5114576;27;20543;-66
2022/08/27 05:18:46;;;;;;;20.13;17.30;;;24.00;78.60;;;;;;5115107;27;20687;-66
2022/08/27 05:21:19;;;;;;;23.57;18.43;;;24.10;78.70;;;;;;5114971;27;20193;-66
2022/08/27 05:23:47;;;;;;;18.33;16.63;;;24.10;78.70;;;;;;5117791;27;20208;-65
2022/08/27 05:26:14;;;;;;;21.33;17.67;;;24.10;78.80;;;;;;5099645;28;20216;-65
2022/08/27 05:28:42;;;;;;;21.27;16.80;;;24.10;78.60;;;;;;5114333;27;20641;-66
2022/08/27 05:31:11;;;;;;;19.43;16.37;;;24.20;78.50;;;;;;5120386;27;20627;-66
2022/08/27 05:33:40;;;;;;;17.67;15.73;;;24.30;78.30;;;;;;5120100;27;20205;-66
2022/08/27 05:36:13;;;;;;;18.47;16.03;;;24.40;78.20;;;;;;5106535;27;20537;-66
2022/08/27 05:38:41;;;;;;;19.40;16.23;;;24.50;77.90;;;;;;5125267;27;20193;-66
2022/08/27 05:41:14;;;;;;;20.27;16.90;;;24.60;77.60;;;;;;5118289;27;20262;-66
2022/08/27 05:43:42;;;;;;;21.03;17.27;;;24.70;77.40;;;;;;5083666;28;20522;-66
2022/08/27 05:46:17;;;;;;;25.50;16.00;;;24.80;77.20;;;;;;5115699;27;20257;-66
2022/08/27 05:48:45;;;;;;;24.07;16.20;;;24.90;77.10;;;;;;5123706;27;20205;-66
2022/08/27 05:51:21;;;;;;;20.93;16.53;;;25.00;76.80;;;;;;5106773;27;20214;-66
2022/08/27 05:54:09;;;;;;;20.03;16.87;;;25.10;76.20;;;;;;5115862;27;20254;-66
2022/08/27 05:56:37;;;;;;;22.27;17.17;;;25.20;75.50;;;;;;5099714;27;20216;-66
2022/08/27 06:01:53;;;;;;;18.63;15.27;;;25.40;75.30;;;;;;5116126;27;20210;-66
2022/08/27 06:04:22;;;;;;;19.47;14.60;;;25.50;75.00;;;;;;5118253;27;20204;-66
2022/08/27 06:06:50;;;;;;;15.97;13.27;;;25.60;75.00;;;;;;5112956;27;20238;-66
2022/08/27 06:09:24;;;;;;;16.00;13.40;;;25.70;74.80;;;;;;5113767;27;20201;-66
2022/08/27 06:11:56;;;;;;;14.33;12.73;;;25.90;74.10;;;;;;5118824;27;20621;-66
2022/08/27 06:14:24;;;;;;;17.70;13.57;;;26.00;73.60;;;;;;5102118;27;20226;-66
2022/08/27 06:16:51;;;;;;;16.00;14.33;;;26.20;73.50;;;;;;5117521;27;20233;-66
2022/08/27 06:19:18;;;;;;;15.63;12.70;;;26.30;72.70;;;;;;5123878;27;20227;-66
2022/08/27 06:21:46;;;;;;;15.47;12.90;;;26.50;72.20;;;;;;5121387;27;20205;-66
2022/08/27 06:24:33;;;;;;;13.07;11.77;;;26.70;71.70;;;;;;5115227;27;20625;-66
2022/08/27 06:27:02;;;;;;;15.43;11.50;;;26.80;70.90;;;;;;5114800;27;20212;-66
2022/08/27 06:29:29;;;;;;;17.63;12.47;;;27.00;70.50;;;;;;5116362;27;20192;-66
2022/08/27 06:31:56;;;;;;;14.50;11.43;;;27.20;70.00;;;;;;5121492;27;20231;-66
2022/08/27 06:34:23;;;;;;;11.37;10.27;;;27.20;69.20;;;;;;5120526;27;20198;-66
2022/08/27 06:36:50;;;;;;;16.97;11.23;;;27.30;69.00;;;;;;5117016;27;20238;-66
2022/08/27 06:39:17;;;;;;;11.97;10.87;;;27.30;68.50;;;;;;5122563;27;20207;-66
2022/08/27 06:41:44;;;;;;;17.90;10.63;;;27.40;68.30;;;;;;5112911;27;20209;-66
2022/08/27 06:44:13;;;;;;;11.80;10.67;;;27.50;68.50;;;;;;5101829;27;20214;-66
2022/08/27 06:46:41;;;;;;;13.73;11.90;;;27.60;68.20;;;;;;5101071;28;20283;-66
2022/08/27 06:49:09;;;;;;;12.97;11.40;;;27.70;66.90;;;;;;5102165;28;20712;-66
2022/08/27 06:51:38;;;;;;;13.27;10.73;;;27.80;66.00;;;;;;5097758;28;20207;-66
2022/08/27 06:54:08;;;;;;;17.03;11.40;;;27.80;66.40;;;;;;5117144;27;20212;-66
2022/08/27 06:56:35;;;;;;;13.17;11.13;;;27.90;66.80;;;;;;5122031;27;20227;-66
2022/08/27 06:59:06;;;;;;;13.70;10.87;;;27.90;66.60;;;;;;5120170;27;20314;-66
2022/08/27 07:01:41;;;;;;;13.03;11.00;;;28.00;66.30;;;;;;5101552;28;20221;-66
2022/08/27 07:04:12;;;;;;;20.37;13.10;;;28.10;65.90;;;;;;5105362;27;20206;-66
2022/08/27 07:06:40;;;;;;;18.13;12.40;;;28.20;65.40;;;;;;5114786;27;20225;-66
2022/08/27 07:09:08;;;;;;;16.33;11.43;;;28.20;65.20;;;;;;5115374;27;20587;-66
2022/08/27 07:11:37;;;;;;;13.33;11.93;;;28.30;65.40;;;;;;5117133;27;20210;-66
2022/08/27 07:14:05;;;;;;;13.77;11.50;;;28.40;64.60;;;;;;5120631;27;20200;-66
2022/08/27 07:16:33;;;;;;;15.63;10.90;;;28.40;64.10;;;;;;5096631;28;20293;-66
2022/08/27 07:19:04;;;;;;;14.73;12.17;;;28.50;63.90;;;;;;5117192;27;20581;-66
2022/08/27 07:21:33;;;;;;;18.50;11.73;;;28.60;64.60;;;;;;5103963;28;20202;-66
2022/08/27 07:24:03;;;;;;;11.87;10.23;;;28.70;64.90;;;;;;5118127;27;20196;-66
2022/08/27 07:26:33;;;;;;;13.57;11.83;;;28.80;64.50;;;;;;5124432;27;20212;-66
2022/08/27 07:29:00;;;;;;;12.00;10.17;;;28.90;64.50;;;;;;5120013;28;20899;-66
2022/08/27 07:31:28;;;;;;;16.10;11.90;;;29.00;64.40;;;;;;5106645;28;20210;-66
2022/08/27 07:33:55;;;;;;;13.70;10.90;;;29.20;63.50;;;;;;5112163;28;20210;-66
2022/08/27 07:36:22;;;;;;;14.00;11.80;;;29.20;63.20;;;;;;5117462;28;20230;-66
2022/08/27 07:38:51;;;;;;;12.93;11.37;;;29.40;63.20;;;;;;5097096;28;20275;-66
2022/08/27 07:44:23;;;;;;;15.93;10.77;;;29.50;62.20;;;;;;5115998;28;20203;-66
2022/08/27 07:44:25;;;;;;;17.43;11.07;;;29.60;62.40;;;;;;5115560;28;20200;-66
2022/08/27 07:47:01;;;;;;;14.07;11.90;;;29.60;62.10;;;;;;5123690;28;20282;-66
2022/08/27 07:49:28;;;;;;;18.30;11.33;;;29.60;61.30;;;;;;5116442;28;20532;-66
2022/08/27 07:51:56;;;;;;;11.90;10.70;;;29.70;61.10;;;;;;5117789;28;20215;-66
2022/08/27 07:54:23;;;;;;;11.90;10.80;;;29.70;61.20;;;;;;5119650;28;20215;-66
2022/08/27 07:56:51;;;;;;;13.53;11.13;;;29.80;61.60;;;;;;5088938;28;20258;-66
2022/08/27 07:59:23;;;;;;;11.13;10.13;;;29.90;61.40;;;;;;5110882;28;20193;-66
2022/08/27 08:01:51;;;;;;;11.43;10.43;;;30.00;61.20;;;;;;5120537;28;20653;-66
2022/08/27 08:04:18;;;;;;;10.80;9.63;;;30.20;60.70;;;;;;5100485;28;20197;-66
2022/08/27 08:06:47;;;;;;;13.40;11.03;;;30.30;60.70;;;;;;5117438;28;20279;-66
2022/08/27 08:09:14;;;;;;;15.77;12.07;;;30.50;60.20;;;;;;5118984;28;20222;-66
2022/08/27 08:11:41;;;;;;;14.10;11.30;;;30.60;59.70;;;;;;5120480;28;20220;-66
2022/08/27 08:14:08;;;;;;;13.50;11.77;;;30.60;59.80;;;;;;5112371;28;20243;-66
2022/08/27 08:16:35;;;;;;;11.77;9.90;;;30.70;59.90;;;;;;5113320;28;20229;-66
2022/08/27 08:19:02;;;;;;;16.50;11.70;;;30.80;60.20;;;;;;5115762;28;20797;-66
2022/08/27 08:21:29;;;;;;;13.70;11.57;;;30.90;59.70;;;;;;5114940;28;20214;-66
2022/08/27 08:23:57;;;;;;;14.83;12.47;;;31.00;59.00;;;;;;5114263;28;20200;-66
2022/08/27 08:26:24;;;;;;;15.67;11.43;;;31.10;58.40;;;;;;5103329;28;20204;-66
2022/08/27 08:28:51;;;;;;;14.23;10.57;;;31.10;58.60;;;;;;5118342;28;20213;-67
2022/08/27 08:31:19;;;;;;;15.20;13.60;;;31.20;58.90;;;;;;5116417;28;20197;-66
2022/08/27 08:33:49;;;;;;;19.77;12.00;;;31.20;58.30;;;;;;5123159;27;20626;-66
2022/08/27 08:36:16;;;;;;;13.93;12.47;;;31.30;58.10;;;;;;5123746;27;20645;-66
2022/08/27 08:38:44;;;;;;;11.97;10.77;;;31.30;57.60;;;;;;5112143;27;20615;-66
2022/08/27 08:41:38;;;;;;;14.60;11.93;;;31.40;57.90;;;;;;5114322;27;20196;-66
2022/08/27 08:44:41;;;;;;;13.63;12.00;;;31.50;57.30;;;;;;5102308;27;20206;-66
2022/08/27 08:47:14;;;;;;;12.20;10.90;;;31.50;57.60;;;;;;5124205;27;20202;-66
2022/08/27 08:49:52;;;;;;;13.53;11.60;;;31.60;57.70;;;;;;5118153;27;20617;-66
2022/08/27 08:52:36;;;;;;;12.27;10.97;;;31.60;56.90;;;;;;5106816;28;20208;-66
2022/08/27 08:55:10;;;;;;;15.17;12.23;;;31.80;57.00;;;;;;5118408;27;20223;-66
2022/08/27 08:57:52;;;;;;;14.17;12.67;;;31.90;56.40;;;;;;5114810;27;20220;-66
2022/08/27 09:00:20;;;;;;;11.80;10.50;;;32.00;55.80;;;;;;5120645;27;20209;-67
2022/08/27 09:02:53;;;;;;;17.50;11.70;;;32.10;55.90;;;;;;5122458;27;20263;-66
2022/08/27 09:05:22;;;;;;;14.10;11.13;;;32.20;57.20;;;;;;5115747;27;20193;-66
2022/08/27 09:08:08;;;;;;;17.37;12.03;;;32.20;55.20;;;;;;5114941;27;20671;-66
2022/08/27 09:11:25;;;;;;;13.50;11.50;;;32.20;55.10;;;;;;5122909;27;20617;-66
2022/08/27 09:13:58;;;;;;;12.37;10.77;;;32.20;54.80;;;;;;5120764;27;20200;-66
2022/08/27 09:16:26;;;;;;;14.57;10.90;;;32.20;54.90;;;;;;5121195;27;20216;-66
2022/08/27 09:18:54;;;;;;;11.90;9.53;;;32.20;54.80;;;;;;5103374;27;20242;-66
2022/08/27 09:21:40;;;;;;;12.27;10.73;;;32.20;55.60;;;;;;5100115;27;20203;-66
2022/08/27 09:24:13;;;;;;;16.17;11.53;;;32.30;55.30;;;;;;5104063;28;20200;-67
2022/08/27 09:26:42;;;;;;;14.80;12.03;;;32.50;55.20;;;;;;5114826;27;20199;-67
2022/08/27 09:29:20;;;;;;;14.37;10.50;;;32.60;54.00;;;;;;5087660;27;20630;-67
2022/08/27 09:32:07;;;;;;;15.50;11.93;;;32.60;53.40;;;;;;5103714;27;20196;-67
2022/08/27 09:34:41;;;;;;;10.80;9.03;;;32.60;54.10;;;;;;5118788;27;20200;-66
2022/08/27 09:37:15;;;;;;;13.13;10.20;;;32.60;54.70;;;;;;5118803;27;20232;-67
2022/08/27 09:39:46;;;;;;;14.53;11.10;;;32.70;54.60;;;;;;5121672;27;20560;-67
2022/08/27 09:42:42;;;;;;;12.50;11.20;;;32.80;53.90;;;;;;5107497;27;20511;-66
2022/08/27 09:45:23;;;;;;;16.10;11.60;;;32.90;54.00;;;;;;5117984;27;20200;-66
2022/08/27 09:48:06;;;;;;;15.03;13.33;;;33.00;53.80;;;;;;5093583;28;20196;-67
2022/08/27 09:50:48;;;;;;;13.80;10.47;;;33.10;53.20;;;;;;5112937;27;20200;-66
2022/08/27 09:53:22;;;;;;;16.83;12.23;;;33.10;53.80;;;;;;5123028;27;20640;-66
2022/08/27 09:55:57;;;;;;;17.87;11.90;;;33.20;53.70;;;;;;5120052;27;20293;-66
2022/08/27 09:58:34;;;;;;;14.87;13.37;;;33.30;53.90;;;;;;5118216;27;20701;-66
2022/08/27 10:01:04;;;;;;;16.57;13.47;;;33.30;52.50;;;;;;5116171;27;20215;-67
2022/08/27 10:03:32;;;;;;;18.97;14.57;;;33.10;52.70;;;;;;5117096;27;20261;-66
2022/08/27 10:05:59;;;;;;;13.37;11.40;;;33.00;52.70;;;;;;5119290;27;20201;-66
2022/08/27 10:08:40;;;;;;;14.60;11.20;;;32.90;53.80;;;;;;5120979;27;20564;-66
2022/08/27 10:11:22;;;;;;;12.63;11.30;;;32.90;53.50;;;;;;5106135;27;20212;-66
2022/08/27 10:13:58;;;;;;;16.33;12.07;;;32.90;52.50;;;;;;5115280;27;20564;-66
2022/08/27 10:16:46;;;;;;;14.13;10.30;;;32.80;52.80;;;;;;5118579;27;20728;-66
2022/08/27 10:19:28;;;;;;;22.03;11.67;;;32.80;53.80;;;;;;5119435;27;20240;-66
2022/08/27 10:22:13;;;;;;;23.93;7.73;;;32.90;54.10;;;;;;5121402;27;20199;-66
2022/08/27 10:25:10;;;;;;;12.40;5.97;;;32.70;52.30;;;;;;5118512;27;20652;-66
2022/08/27 10:28:03;;;;;;;17.27;6.47;;;32.30;51.80;;;;;;5116963;27;20196;-67
2022/08/27 10:30:55;;;;;;;16.57;6.97;;;31.80;53.00;;;;;;5118125;27;20264;-66
2022/08/27 10:33:28;;;;;;;12.50;6.87;;;31.50;54.20;;;;;;5113379;27;20208;-67
2022/08/27 10:36:15;;;;;;;13.73;7.00;;;31.20;54.90;;;;;;5103630;28;20780;-66
2022/08/27 10:38:55;;;;;;;14.30;7.53;;;31.10;55.80;;;;;;5113144;27;20239;-66
2022/08/27 10:41:30;;;;;;;14.43;7.60;;;31.10;55.20;;;;;;5103145;27;20204;-66
2022/08/27 10:44:42;;;;;;;11.53;6.53;;;31.00;55.40;;;;;;5103550;27;20618;-65
2022/08/27 10:47:18;;;;;;;8.07;5.47;;;31.00;54.80;;;;;;5118313;27;20196;-66
2022/08/27 10:50:14;;;;;;;16.87;6.23;;;31.10;55.30;;;;;;5117199;27;20206;-67
2022/08/27 10:52:53;;;;;;;12.60;6.83;;;31.20;55.10;;;;;;5116163;27;20205;-66
2022/08/27 10:55:33;;;;;;;11.47;5.93;;;31.30;53.40;;;;;;5111948;27;20199;-66
2022/08/27 10:58:09;;;;;;;7.83;5.40;;;31.20;53.40;;;;;;5119656;27;20216;-66
2022/08/27 11:01:01;;;;;;;8.37;5.63;;;31.20;54.10;;;;;;5117559;27;20199;-66
2022/08/27 11:03:53;;;;;;;13.70;7.50;;;31.20;54.20;;;;;;5088966;27;20187;-66
2022/08/27 11:06:20;;;;;;;13.20;8.63;;;31.20;54.30;;;;;;5113875;27;20214;-66
2022/08/27 11:08:53;;;;;;;8.77;6.67;;;31.20;53.90;;;;;;5113066;27;20204;-66
2022/08/27 11:11:35;;;;;;;9.03;7.50;;;31.20;54.70;;;;;;5112019;27;20616;-66
2022/08/27 11:14:28;;;;;;;8.50;7.00;;;31.00;54.50;;;;;;5118848;27;20208;-66
2022/08/27 11:17:10;;;;;;;15.50;8.37;;;31.00;54.60;;;;;;5116985;27;20230;-66
2022/08/27 11:20:00;;;;;;;8.57;7.70;;;31.00;55.10;;;;;;5108538;27;20240;-66
2022/08/27 11:22:56;;;;;;;11.57;8.10;;;30.90;55.30;;;;;;5097266;28;20204;-66
2022/08/27 11:25:33;;;;;;;9.43;7.10;;;30.80;54.60;;;;;;5108346;27;20212;-66
2022/08/27 11:28:01;;;;;;;11.40;7.67;;;30.70;55.80;;;;;;5122480;27;20207;-66
2022/08/27 11:30:44;;;;;;;13.53;7.97;;;30.40;55.30;;;;;;5118871;28;20211;-66
2022/08/27 11:33:27;;;;;;;11.07;8.93;;;30.20;55.80;;;;;;5123453;28;20196;-66
2022/08/27 11:36:00;;;;;;;8.63;6.03;;;30.00;56.60;;;;;;5114106;28;20203;-66
2022/08/27 11:38:51;;;;;;;9.73;3.77;;;29.80;56.10;;;;;;5109406;28;20216;-66
2022/08/27 11:41:39;;;;;;;5.17;3.57;;;29.60;55.00;;;;;;5117081;28;20664;-66
2022/08/27 11:44:13;;;;;;;4.70;3.23;;;29.30;55.70;;;;;;5118696;28;20576;-66
2022/08/27 11:46:52;;;;;;;11.13;3.60;;;29.00;56.70;;;;;;5100683;28;20672;-66
2022/08/27 11:49:45;;;;;;;9.20;2.93;;;28.80;56.90;;;;;;5120879;28;20298;-66
2022/08/27 11:52:22;;;;;;;4.80;2.70;;;28.60;56.10;;;;;;5118374;28;20199;-65
2022/08/27 11:54:54;;;;;;;8.43;3.13;;;28.40;55.70;;;;;;5102324;28;20202;-66
2022/08/27 11:57:33;;;;;;;4.97;2.87;;;28.20;56.90;;;;;;5119224;28;20211;-66
2022/08/27 12:00:19;;;;;;;7.20;2.90;;;28.10;56.10;;;;;;5105931;28;20200;-67
2022/08/27 12:03:22;;;;;;;3.47;2.73;;;28.00;56.10;;;;;;5114238;28;20195;-66
2022/08/27 12:05:52;;;;;;;7.80;2.83;;;27.90;56.20;;;;;;5116251;28;20214;-66
2022/08/27 12:08:21;;;;;;;8.57;2.80;;;27.90;56.80;;;;;;5120195;28;20228;-66
2022/08/27 12:11:16;;;;;;;7.67;2.83;;;27.80;57.40;;;;;;5122864;27;20275;-66
2022/08/27 12:13:51;;;;;;;8.47;2.77;;;27.80;57.60;;;;;;5125441;27;20204;-66
2022/08/27 12:16:40;;;;;;;4.40;2.77;;;27.70;57.90;;;;;;5117172;27;20200;-66
2022/08/27 12:19:22;;;;;;;4.87;2.07;;;27.60;57.30;;;;;;5118903;27;20243;-66
2022/08/27 12:22:13;;;;;;;6.17;2.30;;;27.60;57.50;;;;;;5118445;27;20288;-67
2022/08/27 12:24:52;;;;;;;5.77;2.40;;;27.50;58.30;;;;;;5114894;27;20565;-67
2022/08/27 12:27:24;;;;;;;3.83;2.30;;;27.40;58.30;;;;;;5090247;27;20206;-67
2022/08/27 12:30:01;;;;;;;3.40;2.20;;;27.30;58.20;;;;;;5117012;27;20199;-67
2022/08/27 12:32:43;;;;;;;2.50;1.80;;;27.20;58.50;;;;;;5096796;27;20218;-67
2022/08/27 12:35:16;;;;;;;4.17;2.30;;;27.20;58.60;;;;;;5089863;27;20205;-67
2022/08/27 12:37:48;;;;;;;3.57;1.97;;;27.10;58.80;;;;;;5102641;27;20214;-67
2022/08/27 12:40:26;;;;;;;5.20;2.10;;;27.00;59.00;;;;;;5121845;27;20196;-67
2022/08/27 12:43:09;;;;;;;2.00;1.70;;;27.00;58.70;;;;;;5116306;27;20253;-66
2022/08/27 12:45:50;;;;;;;2.17;1.97;;;27.00;58.70;;;;;;5120943;27;20202;-67
2022/08/27 12:48:22;;;;;;;9.47;2.07;;;27.00;59.20;;;;;;5123014;27;20543;-66
2022/08/27 12:50:52;;;;;;;7.17;2.40;;;27.00;60.00;;;;;;5120018;27;20214;-67
2022/08/27 12:53:43;;;;;;;3.37;1.97;;;27.00;59.70;;;;;;5101835;27;20533;-66
2022/08/27 12:56:41;;;;;;;5.73;2.07;;;27.00;60.10;;;;;;5107361;27;20209;-66
2022/08/27 12:59:32;;;;;;;7.23;2.73;;;27.00;60.30;;;;;;5118434;27;20207;-66
2022/08/27 13:02:14;;;;;;;5.53;2.73;;;27.00;61.10;;;;;;5123399;27;20196;-65
2022/08/27 13:04:42;;;;;;;9.73;2.80;;;26.90;62.60;;;;;;5124743;27;20203;-65
2022/08/27 13:07:09;;;;;;;19.03;2.80;;;26.80;63.90;;;;;;5116088;27;20211;-64